sensor_id;sensor_type;location;lat;lon;timestamp;P1;durP1;ratioP1;P2;durP2;ratioP2
64252;SDS011;50592;52.958;-7.470;2022-10-22T00:17:01;3.60;;;0.40;;
64252;SDS011;50592;52.958;-7.470;2022-10-22T00:20:51;2.28;;;0.35;;
64252;SDS011;50592;52.958;-7.470;2022-10-22T00:44:04;5.55;;;0.50;;
64252;SDS011;50592;52.958;-7.470;2022-10-22T00:48:00;2.20;;;0.38;;
64252;SDS011;50592;52.958;-7.470;2022-10-22T01:03:16;4.47;;;0.70;;
64252;SDS011;50592;52.958;-7.470;2022-10-22T01:29:39;4.82;;;0.70;;
64252;SDS011;50592;52.958;-7.470;2022-10-22T01:33:04;8.45;;;0.90;;
64252;SDS011;50592;52.958;-7.470;2022-10-22T01:40:20;8.68;;;1.52;;
64252;SDS011;50592;52.958;-7.470;2022-10-22T01:42:58;6.35;;;0.85;;
64252;SDS011;50592;52.958;-7.470;2022-10-22T01:46:08;5.25;;;0.90;;
64252;SDS011;50592;52.958;-7.470;2022-10-22T02:16:54;3.45;;;0.80;;
64252;SDS011;50592;52.958;-7.470;2022-10-22T02:24:39;5.03;;;0.60;;
64252;SDS011;50592;52.958;-7.470;2022-10-22T02:31:58;7.00;;;0.63;;
64252;SDS011;50592;52.958;-7.470;2022-10-22T02:34:50;4.93;;;0.88;;
64252;SDS011;50592;52.958;-7.470;2022-10-22T02:37:29;6.57;;;0.60;;
64252;SDS011;50592;52.958;-7.470;2022-10-22T02:40:56;7.85;;;0.60;;
64252;SDS011;50592;52.958;-7.470;2022-10-22T02:44:09;4.38;;;0.70;;
64252;SDS011;50592;52.958;-7.470;2022-10-22T02:47:05;7.07;;;1.50;;
64252;SDS011;50592;52.958;-7.470;2022-10-22T02:50:14;6.68;;;0.98;;
64252;SDS011;50592;52.958;-7.470;2022-10-22T02:52:55;9.40;;;1.27;;
64252;SDS011;50592;52.958;-7.470;2022-10-22T02:55:47;10.93;;;1.17;;
64252;SDS011;50592;52.958;-7.470;2022-10-22T02:58:26;6.10;;;1.20;;
64252;SDS011;50592;52.958;-7.470;2022-10-22T03:01:01;12.23;;;0.90;;
64252;SDS011;50592;52.958;-7.470;2022-10-22T03:03:44;10.38;;;1.25;;
64252;SDS011;50592;52.958;-7.470;2022-10-22T03:07:04;9.75;;;1.38;;
64252;SDS011;50592;52.958;-7.470;2022-10-22T03:09:35;13.30;;;1.25;;
64252;SDS011;50592;52.958;-7.470;2022-10-22T03:12:56;11.02;;;1.38;;
64252;SDS011;50592;52.958;-7.470;2022-10-22T03:19:20;11.25;;;1.02;;
64252;SDS011;50592;52.958;-7.470;2022-10-22T03:22:34;6.20;;;1.02;;
64252;SDS011;50592;52.958;-7.470;2022-10-22T03:26:09;7.43;;;1.15;;
64252;SDS011;50592;52.958;-7.470;2022-10-22T03:32:29;9.68;;;1.70;;
64252;SDS011;50592;52.958;-7.470;2022-10-22T03:36:09;11.68;;;2.05;;
64252;SDS011;50592;52.958;-7.470;2022-10-22T03:39:25;9.80;;;1.75;;
64252;SDS011;50592;52.958;-7.470;2022-10-22T03:42:31;7.65;;;1.15;;
64252;SDS011;50592;52.958;-7.470;2022-10-22T03:45:16;8.60;;;1.52;;
64252;SDS011;50592;52.958;-7.470;2022-10-22T03:48:37;14.00;;;2.05;;
64252;SDS011;50592;52.958;-7.470;2022-10-22T03:51:26;18.25;;;1.55;;
64252;SDS011;50592;52.958;-7.470;2022-10-22T03:53:55;13.48;;;1.50;;
64252;SDS011;50592;52.958;-7.470;2022-10-22T03:56:42;12.32;;;1.50;;
64252;SDS011;50592;52.958;-7.470;2022-10-22T03:59:23;15.20;;;1.67;;
64252;SDS011;50592;52.958;-7.470;2022-10-22T04:02:34;11.23;;;1.45;;
64252;SDS011;50592;52.958;-7.470;2022-10-22T04:05:25;13.00;;;1.48;;
64252;SDS011;50592;52.958;-7.470;2022-10-22T04:10:39;11.77;;;1.40;;
64252;SDS011;50592;52.958;-7.470;2022-10-22T04:13:19;14.73;;;1.75;;
64252;SDS011;50592;52.958;-7.470;2022-10-22T04:16:14;10.60;;;1.58;;
64252;SDS011;50592;52.958;-7.470;2022-10-22T04:18:45;13.02;;;1.23;;
64252;SDS011;50592;52.958;-7.470;2022-10-22T04:21:31;13.63;;;1.45;;
64252;SDS011;50592;52.958;-7.470;2022-10-22T04:24:04;17.30;;;2.25;;
64252;SDS011;50592;52.958;-7.470;2022-10-22T04:26:46;11.70;;;1.42;;
64252;SDS011;50592;52.958;-7.470;2022-10-22T04:29:40;15.27;;;1.45;;
64252;SDS011;50592;52.958;-7.470;2022-10-22T04:32:09;19.38;;;1.92;;
64252;SDS011;50592;52.958;-7.470;2022-10-22T04:34:37;23.42;;;1.90;;
64252;SDS011;50592;52.958;-7.470;2022-10-22T04:37:06;18.40;;;1.70;;
64252;SDS011;50592;52.958;-7.470;2022-10-22T04:39:33;11.27;;;1.55;;
64252;SDS011;50592;52.958;-7.470;2022-10-22T04:42:05;27.45;;;3.22;;
64252;SDS011;50592;52.958;-7.470;2022-10-22T04:44:33;12.32;;;1.88;;
64252;SDS011;50592;52.958;-7.470;2022-10-22T04:47:02;12.25;;;1.65;;
64252;SDS011;50592;52.958;-7.470;2022-10-22T04:49:30;9.18;;;1.38;;
64252;SDS011;50592;52.958;-7.470;2022-10-22T04:52:00;9.25;;;1.38;;
64252;SDS011;50592;52.958;-7.470;2022-10-22T04:54:27;11.88;;;1.23;;
64252;SDS011;50592;52.958;-7.470;2022-10-22T04:56:56;13.85;;;2.20;;
64252;SDS011;50592;52.958;-7.470;2022-10-22T04:59:24;15.32;;;1.95;;
64252;SDS011;50592;52.958;-7.470;2022-10-22T05:01:55;9.32;;;1.52;;
64252;SDS011;50592;52.958;-7.470;2022-10-22T05:04:28;17.98;;;1.75;;
64252;SDS011;50592;52.958;-7.470;2022-10-22T05:06:56;23.67;;;2.28;;
64252;SDS011;50592;52.958;-7.470;2022-10-22T05:09:24;12.88;;;1.10;;
64252;SDS011;50592;52.958;-7.470;2022-10-22T05:12:05;12.00;;;1.60;;
64252;SDS011;50592;52.958;-7.470;2022-10-22T05:14:36;15.82;;;2.92;;
64252;SDS011;50592;52.958;-7.470;2022-10-22T05:17:10;18.17;;;1.48;;
64252;SDS011;50592;52.958;-7.470;2022-10-22T05:19:41;12.55;;;2.35;;
64252;SDS011;50592;52.958;-7.470;2022-10-22T05:22:14;15.27;;;2.08;;
64252;SDS011;50592;52.958;-7.470;2022-10-22T05:24:41;13.15;;;1.98;;
64252;SDS011;50592;52.958;-7.470;2022-10-22T05:27:10;14.15;;;2.25;;
64252;SDS011;50592;52.958;-7.470;2022-10-22T05:29:40;13.35;;;2.65;;
64252;SDS011;50592;52.958;-7.470;2022-10-22T05:32:18;12.45;;;2.00;;
64252;SDS011;50592;52.958;-7.470;2022-10-22T05:34:52;10.95;;;1.65;;
64252;SDS011;50592;52.958;-7.470;2022-10-22T05:37:25;19.38;;;2.55;;
64252;SDS011;50592;52.958;-7.470;2022-10-22T05:39:55;15.38;;;1.92;;
64252;SDS011;50592;52.958;-7.470;2022-10-22T05:42:30;14.30;;;1.80;;
64252;SDS011;50592;52.958;-7.470;2022-10-22T05:45:01;9.43;;;1.90;;
64252;SDS011;50592;52.958;-7.470;2022-10-22T05:47:31;13.32;;;1.92;;
64252;SDS011;50592;52.958;-7.470;2022-10-22T05:50:01;10.18;;;1.55;;
64252;SDS011;50592;52.958;-7.470;2022-10-22T05:52:36;16.42;;;1.67;;
64252;SDS011;50592;52.958;-7.470;2022-10-22T05:55:04;14.30;;;1.55;;
64252;SDS011;50592;52.958;-7.470;2022-10-22T05:57:45;14.32;;;2.13;;
64252;SDS011;50592;52.958;-7.470;2022-10-22T06:00:22;14.55;;;1.55;;
64252;SDS011;50592;52.958;-7.470;2022-10-22T06:02:54;21.05;;;1.90;;
64252;SDS011;50592;52.958;-7.470;2022-10-22T06:05:25;13.43;;;1.85;;
64252;SDS011;50592;52.958;-7.470;2022-10-22T06:07:57;17.90;;;2.15;;
64252;SDS011;50592;52.958;-7.470;2022-10-22T06:10:35;10.60;;;2.03;;
64252;SDS011;50592;52.958;-7.470;2022-10-22T06:13:33;17.13;;;1.60;;
64252;SDS011;50592;52.958;-7.470;2022-10-22T06:16:05;7.28;;;1.25;;
64252;SDS011;50592;52.958;-7.470;2022-10-22T06:18:44;13.02;;;1.70;;
64252;SDS011;50592;52.958;-7.470;2022-10-22T06:21:14;22.35;;;2.05;;
64252;SDS011;50592;52.958;-7.470;2022-10-22T06:23:42;12.40;;;1.75;;
64252;SDS011;50592;52.958;-7.470;2022-10-22T06:26:11;20.40;;;1.85;;
64252;SDS011;50592;52.958;-7.470;2022-10-22T06:28:53;14.73;;;2.25;;
64252;SDS011;50592;52.958;-7.470;2022-10-22T06:31:26;11.50;;;1.55;;
64252;SDS011;50592;52.958;-7.470;2022-10-22T06:33:56;14.30;;;1.70;;
64252;SDS011;50592;52.958;-7.470;2022-10-22T06:36:29;11.63;;;1.65;;
64252;SDS011;50592;52.958;-7.470;2022-10-22T06:39:04;19.17;;;1.85;;
64252;SDS011;50592;52.958;-7.470;2022-10-22T06:41:31;15.40;;;1.95;;
64252;SDS011;50592;52.958;-7.470;2022-10-22T06:44:00;15.38;;;1.42;;
64252;SDS011;50592;52.958;-7.470;2022-10-22T06:46:27;13.00;;;1.77;;
64252;SDS011;50592;52.958;-7.470;2022-10-22T06:49:03;18.02;;;2.00;;
64252;SDS011;50592;52.958;-7.470;2022-10-22T06:51:34;14.00;;;2.00;;
64252;SDS011;50592;52.958;-7.470;2022-10-22T06:54:09;18.60;;;1.80;;
64252;SDS011;50592;52.958;-7.470;2022-10-22T06:57:00;19.42;;;2.45;;
64252;SDS011;50592;52.958;-7.470;2022-10-22T06:59:31;9.68;;;1.27;;
64252;SDS011;50592;52.958;-7.470;2022-10-22T07:02:01;17.08;;;2.15;;
64252;SDS011;50592;52.958;-7.470;2022-10-22T07:04:31;12.38;;;1.35;;
64252;SDS011;50592;52.958;-7.470;2022-10-22T07:06:58;13.60;;;1.15;;
64252;SDS011;50592;52.958;-7.470;2022-10-22T07:09:28;12.27;;;1.80;;
64252;SDS011;50592;52.958;-7.470;2022-10-22T07:11:58;13.98;;;2.05;;
64252;SDS011;50592;52.958;-7.470;2022-10-22T07:14:28;14.00;;;1.50;;
64252;SDS011;50592;52.958;-7.470;2022-10-22T07:16:58;15.57;;;1.77;;
64252;SDS011;50592;52.958;-7.470;2022-10-22T07:19:26;15.18;;;1.90;;
64252;SDS011;50592;52.958;-7.470;2022-10-22T07:21:54;13.15;;;2.28;;
64252;SDS011;50592;52.958;-7.470;2022-10-22T07:24:24;18.42;;;1.77;;
64252;SDS011;50592;52.958;-7.470;2022-10-22T07:26:57;12.85;;;1.58;;
64252;SDS011;50592;52.958;-7.470;2022-10-22T07:29:30;12.40;;;1.67;;
64252;SDS011;50592;52.958;-7.470;2022-10-22T07:32:00;17.17;;;1.73;;
64252;SDS011;50592;52.958;-7.470;2022-10-22T07:34:30;14.82;;;1.67;;
64252;SDS011;50592;52.958;-7.470;2022-10-22T07:36:57;14.43;;;2.05;;
64252;SDS011;50592;52.958;-7.470;2022-10-22T07:39:29;12.80;;;1.67;;
64252;SDS011;50592;52.958;-7.470;2022-10-22T07:41:56;14.40;;;1.77;;
64252;SDS011;50592;52.958;-7.470;2022-10-22T07:44:29;18.92;;;1.80;;
64252;SDS011;50592;52.958;-7.470;2022-10-22T07:46:58;14.40;;;1.92;;
64252;SDS011;50592;52.958;-7.470;2022-10-22T07:49:25;11.50;;;1.55;;
64252;SDS011;50592;52.958;-7.470;2022-10-22T07:51:55;11.13;;;1.77;;
64252;SDS011;50592;52.958;-7.470;2022-10-22T07:54:26;13.55;;;2.00;;
64252;SDS011;50592;52.958;-7.470;2022-10-22T07:56:55;11.40;;;1.58;;
64252;SDS011;50592;52.958;-7.470;2022-10-22T07:59:23;12.95;;;1.80;;
64252;SDS011;50592;52.958;-7.470;2022-10-22T08:01:56;13.05;;;1.73;;
64252;SDS011;50592;52.958;-7.470;2022-10-22T08:04:23;14.02;;;2.33;;
64252;SDS011;50592;52.958;-7.470;2022-10-22T08:06:53;16.05;;;1.52;;
64252;SDS011;50592;52.958;-7.470;2022-10-22T08:09:23;16.60;;;2.75;;
64252;SDS011;50592;52.958;-7.470;2022-10-22T08:11:51;12.68;;;1.50;;
64252;SDS011;50592;52.958;-7.470;2022-10-22T08:14:19;11.52;;;1.80;;
64252;SDS011;50592;52.958;-7.470;2022-10-22T08:16:49;20.05;;;2.25;;
64252;SDS011;50592;52.958;-7.470;2022-10-22T08:19:22;15.43;;;2.35;;
64252;SDS011;50592;52.958;-7.470;2022-10-22T08:21:49;12.23;;;1.65;;
64252;SDS011;50592;52.958;-7.470;2022-10-22T08:24:18;8.95;;;1.25;;
64252;SDS011;50592;52.958;-7.470;2022-10-22T08:26:45;14.45;;;2.55;;
64252;SDS011;50592;52.958;-7.470;2022-10-22T08:29:16;15.48;;;2.92;;
64252;SDS011;50592;52.958;-7.470;2022-10-22T08:31:43;14.38;;;1.67;;
64252;SDS011;50592;52.958;-7.470;2022-10-22T08:34:13;17.92;;;1.75;;
64252;SDS011;50592;52.958;-7.470;2022-10-22T08:36:40;15.48;;;2.05;;
64252;SDS011;50592;52.958;-7.470;2022-10-22T08:40:09;20.80;;;1.98;;
64252;SDS011;50592;52.958;-7.470;2022-10-22T08:51:22;15.35;;;1.77;;
64252;SDS011;50592;52.958;-7.470;2022-10-22T09:09:41;13.65;;;1.83;;
64252;SDS011;50592;52.958;-7.470;2022-10-22T09:12:35;13.73;;;2.08;;
64252;SDS011;50592;52.958;-7.470;2022-10-22T09:20:15;19.60;;;1.88;;
64252;SDS011;50592;52.958;-7.470;2022-10-22T09:28:11;13.40;;;2.00;;
64252;SDS011;50592;52.958;-7.470;2022-10-22T09:35:09;12.77;;;1.30;;
64252;SDS011;50592;52.958;-7.470;2022-10-22T09:50:40;11.57;;;1.63;;
64252;SDS011;50592;52.958;-7.470;2022-10-22T10:14:28;9.80;;;1.83;;
64252;SDS011;50592;52.958;-7.470;2022-10-22T10:30:43;14.38;;;2.00;;
64252;SDS011;50592;52.958;-7.470;2022-10-22T10:42:04;10.07;;;1.42;;
64252;SDS011;50592;52.958;-7.470;2022-10-22T10:50:32;7.50;;;1.13;;
64252;SDS011;50592;52.958;-7.470;2022-10-22T10:58:44;10.93;;;1.65;;
64252;SDS011;50592;52.958;-7.470;2022-10-22T11:01:26;12.00;;;1.80;;
64252;SDS011;50592;52.958;-7.470;2022-10-22T11:06:51;12.25;;;2.28;;
64252;SDS011;50592;52.958;-7.470;2022-10-22T11:09:33;20.88;;;2.33;;
64252;SDS011;50592;52.958;-7.470;2022-10-22T11:12:11;6.43;;;1.70;;
64252;SDS011;50592;52.958;-7.470;2022-10-22T11:14:59;8.20;;;1.60;;
64252;SDS011;50592;52.958;-7.470;2022-10-22T11:17:41;11.27;;;1.50;;
64252;SDS011;50592;52.958;-7.470;2022-10-22T11:20:24;13.63;;;1.35;;
64252;SDS011;50592;52.958;-7.470;2022-10-22T11:23:08;9.70;;;1.10;;
64252;SDS011;50592;52.958;-7.470;2022-10-22T11:25:46;8.57;;;1.50;;
64252;SDS011;50592;52.958;-7.470;2022-10-22T11:28:20;10.65;;;2.95;;
64252;SDS011;50592;52.958;-7.470;2022-10-22T11:31:13;8.73;;;1.67;;
64252;SDS011;50592;52.958;-7.470;2022-10-22T11:33:47;8.60;;;1.17;;
64252;SDS011;50592;52.958;-7.470;2022-10-22T11:36:22;12.80;;;1.30;;
64252;SDS011;50592;52.958;-7.470;2022-10-22T11:38:53;6.75;;;1.77;;
64252;SDS011;50592;52.958;-7.470;2022-10-22T11:41:26;11.23;;;1.63;;
64252;SDS011;50592;52.958;-7.470;2022-10-22T11:51:42;10.57;;;1.20;;
64252;SDS011;50592;52.958;-7.470;2022-10-22T11:57:16;8.05;;;1.13;;
64252;SDS011;50592;52.958;-7.470;2022-10-22T11:59:57;11.18;;;1.38;;
64252;SDS011;50592;52.958;-7.470;2022-10-22T12:02:39;12.55;;;1.20;;
64252;SDS011;50592;52.958;-7.470;2022-10-22T12:07:52;5.20;;;0.82;;
64252;SDS011;50592;52.958;-7.470;2022-10-22T12:10:27;6.25;;;0.90;;
64252;SDS011;50592;52.958;-7.470;2022-10-22T12:13:12;8.48;;;1.50;;
64252;SDS011;50592;52.958;-7.470;2022-10-22T12:15:53;8.35;;;1.35;;
64252;SDS011;50592;52.958;-7.470;2022-10-22T12:19:13;11.20;;;1.27;;
64252;SDS011;50592;52.958;-7.470;2022-10-22T12:22:09;6.13;;;1.00;;
64252;SDS011;50592;52.958;-7.470;2022-10-22T12:24:49;4.72;;;1.30;;
64252;SDS011;50592;52.958;-7.470;2022-10-22T12:27:24;9.05;;;1.40;;
64252;SDS011;50592;52.958;-7.470;2022-10-22T12:30:02;8.65;;;1.58;;
64252;SDS011;50592;52.958;-7.470;2022-10-22T12:32:44;12.48;;;1.83;;
64252;SDS011;50592;52.958;-7.470;2022-10-22T12:35:17;8.85;;;1.98;;
64252;SDS011;50592;52.958;-7.470;2022-10-22T12:37:54;9.60;;;1.10;;
64252;SDS011;50592;52.958;-7.470;2022-10-22T12:40:29;9.10;;;1.10;;
64252;SDS011;50592;52.958;-7.470;2022-10-22T12:43:03;9.43;;;2.03;;
64252;SDS011;50592;52.958;-7.470;2022-10-22T12:45:38;11.80;;;2.15;;
64252;SDS011;50592;52.958;-7.470;2022-10-22T12:48:13;8.05;;;1.10;;
64252;SDS011;50592;52.958;-7.470;2022-10-22T12:50:56;6.72;;;1.15;;
64252;SDS011;50592;52.958;-7.470;2022-10-22T12:56:01;9.45;;;1.23;;
64252;SDS011;50592;52.958;-7.470;2022-10-22T12:58:33;12.90;;;1.42;;
64252;SDS011;50592;52.958;-7.470;2022-10-22T13:01:13;7.75;;;0.98;;
64252;SDS011;50592;52.958;-7.470;2022-10-22T13:03:48;14.18;;;1.67;;
64252;SDS011;50592;52.958;-7.470;2022-10-22T13:06:32;9.73;;;1.45;;
64252;SDS011;50592;52.958;-7.470;2022-10-22T13:09:13;9.77;;;1.60;;
64252;SDS011;50592;52.958;-7.470;2022-10-22T13:11:50;9.07;;;1.08;;
64252;SDS011;50592;52.958;-7.470;2022-10-22T13:14:26;5.72;;;1.23;;
64252;SDS011;50592;52.958;-7.470;2022-10-22T13:17:08;5.90;;;1.05;;
64252;SDS011;50592;52.958;-7.470;2022-10-22T13:20:00;7.47;;;1.08;;
64252;SDS011;50592;52.958;-7.470;2022-10-22T13:22:38;8.25;;;1.17;;
64252;SDS011;50592;52.958;-7.470;2022-10-22T13:27:46;13.18;;;1.30;;
64252;SDS011;50592;52.958;-7.470;2022-10-22T13:45:56;10.40;;;1.20;;
64252;SDS011;50592;52.958;-7.470;2022-10-22T13:48:27;10.95;;;1.65;;
64252;SDS011;50592;52.958;-7.470;2022-10-22T13:50:57;13.88;;;1.40;;
64252;SDS011;50592;52.958;-7.470;2022-10-22T13:53:24;14.07;;;3.35;;
64252;SDS011;50592;52.958;-7.470;2022-10-22T13:55:55;10.30;;;1.73;;
64252;SDS011;50592;52.958;-7.470;2022-10-22T13:58:23;12.32;;;3.35;;
64252;SDS011;50592;52.958;-7.470;2022-10-22T14:00:53;10.32;;;2.53;;
64252;SDS011;50592;52.958;-7.470;2022-10-22T14:03:28;14.25;;;2.20;;
64252;SDS011;50592;52.958;-7.470;2022-10-22T14:06:01;15.82;;;6.70;;
64252;SDS011;50592;52.958;-7.470;2022-10-22T14:08:44;16.70;;;5.10;;
64252;SDS011;50592;52.958;-7.470;2022-10-22T14:22:18;16.60;;;6.25;;
64252;SDS011;50592;52.958;-7.470;2022-10-22T14:25:24;15.57;;;4.78;;
64252;SDS011;50592;52.958;-7.470;2022-10-22T14:27:54;12.13;;;1.67;;
64252;SDS011;50592;52.958;-7.470;2022-10-22T14:30:36;15.65;;;1.98;;
64252;SDS011;50592;52.958;-7.470;2022-10-22T14:33:26;13.45;;;2.50;;
64252;SDS011;50592;52.958;-7.470;2022-10-22T14:35:55;12.10;;;1.45;;
64252;SDS011;50592;52.958;-7.470;2022-10-22T14:38:25;11.38;;;2.80;;
64252;SDS011;50592;52.958;-7.470;2022-10-22T14:40:55;12.75;;;1.98;;
64252;SDS011;50592;52.958;-7.470;2022-10-22T14:43:23;13.68;;;1.67;;
64252;SDS011;50592;52.958;-7.470;2022-10-22T14:45:56;11.63;;;1.77;;
64252;SDS011;50592;52.958;-7.470;2022-10-22T14:48:28;9.52;;;1.60;;
64252;SDS011;50592;52.958;-7.470;2022-10-22T14:50:57;8.65;;;1.73;;
64252;SDS011;50592;52.958;-7.470;2022-10-22T14:53:24;10.60;;;1.83;;
64252;SDS011;50592;52.958;-7.470;2022-10-22T14:55:55;9.07;;;2.22;;
64252;SDS011;50592;52.958;-7.470;2022-10-22T14:58:24;13.55;;;2.30;;
64252;SDS011;50592;52.958;-7.470;2022-10-22T15:00:54;8.65;;;1.30;;
64252;SDS011;50592;52.958;-7.470;2022-10-22T15:03:21;14.45;;;5.10;;
64252;SDS011;50592;52.958;-7.470;2022-10-22T15:05:51;15.65;;;3.08;;
64252;SDS011;50592;52.958;-7.470;2022-10-22T15:08:23;9.80;;;1.50;;
64252;SDS011;50592;52.958;-7.470;2022-10-22T15:11:04;13.02;;;1.80;;
64252;SDS011;50592;52.958;-7.470;2022-10-22T15:13:36;9.98;;;1.63;;
64252;SDS011;50592;52.958;-7.470;2022-10-22T15:16:06;12.32;;;2.53;;
64252;SDS011;50592;52.958;-7.470;2022-10-22T15:18:37;12.10;;;1.83;;
64252;SDS011;50592;52.958;-7.470;2022-10-22T15:21:16;9.95;;;1.85;;
64252;SDS011;50592;52.958;-7.470;2022-10-22T15:23:47;11.40;;;2.00;;
64252;SDS011;50592;52.958;-7.470;2022-10-22T15:26:17;7.07;;;1.20;;
64252;SDS011;50592;52.958;-7.470;2022-10-22T15:28:44;8.38;;;1.35;;
64252;SDS011;50592;52.958;-7.470;2022-10-22T15:31:13;5.72;;;0.90;;
64252;SDS011;50592;52.958;-7.470;2022-10-22T15:33:41;8.77;;;1.45;;
64252;SDS011;50592;52.958;-7.470;2022-10-22T15:36:12;7.63;;;0.90;;
64252;SDS011;50592;52.958;-7.470;2022-10-22T15:38:41;8.07;;;1.10;;
64252;SDS011;50592;52.958;-7.470;2022-10-22T15:41:11;6.32;;;0.95;;
64252;SDS011;50592;52.958;-7.470;2022-10-22T15:43:41;4.35;;;0.63;;
64252;SDS011;50592;52.958;-7.470;2022-10-22T15:46:50;6.47;;;0.80;;
64252;SDS011;50592;52.958;-7.470;2022-10-22T15:49:17;6.80;;;1.35;;
64252;SDS011;50592;52.958;-7.470;2022-10-22T15:51:47;6.70;;;1.00;;
64252;SDS011;50592;52.958;-7.470;2022-10-22T15:54:18;8.32;;;0.98;;
64252;SDS011;50592;52.958;-7.470;2022-10-22T15:56:50;8.50;;;1.08;;
64252;SDS011;50592;52.958;-7.470;2022-10-22T15:59:23;7.80;;;1.08;;
64252;SDS011;50592;52.958;-7.470;2022-10-22T16:01:54;12.25;;;1.20;;
64252;SDS011;50592;52.958;-7.470;2022-10-22T16:04:26;5.90;;;1.00;;
64252;SDS011;50592;52.958;-7.470;2022-10-22T16:06:53;6.38;;;0.90;;
64252;SDS011;50592;52.958;-7.470;2022-10-22T16:09:25;11.27;;;0.93;;
64252;SDS011;50592;52.958;-7.470;2022-10-22T16:11:53;7.03;;;0.95;;
64252;SDS011;50592;52.958;-7.470;2022-10-22T16:14:23;7.60;;;1.10;;
64252;SDS011;50592;52.958;-7.470;2022-10-22T16:16:53;4.97;;;0.90;;
64252;SDS011;50592;52.958;-7.470;2022-10-22T16:19:24;6.70;;;0.70;;
64252;SDS011;50592;52.958;-7.470;2022-10-22T16:21:55;6.35;;;0.63;;
64252;SDS011;50592;52.958;-7.470;2022-10-22T16:24:22;3.40;;;0.50;;
64252;SDS011;50592;52.958;-7.470;2022-10-22T16:26:52;5.63;;;1.00;;
64252;SDS011;50592;52.958;-7.470;2022-10-22T16:29:19;9.38;;;0.80;;
64252;SDS011;50592;52.958;-7.470;2022-10-22T16:31:56;4.60;;;0.90;;
64252;SDS011;50592;52.958;-7.470;2022-10-22T17:01:03;2.83;;;0.82;;
64252;SDS011;50592;52.958;-7.470;2022-10-22T17:05:15;5.45;;;1.42;;
64252;SDS011;50592;52.958;-7.470;2022-10-22T17:08:24;6.57;;;0.82;;
64252;SDS011;50592;52.958;-7.470;2022-10-22T17:11:14;5.03;;;0.60;;
64252;SDS011;50592;52.958;-7.470;2022-10-22T17:13:51;5.28;;;0.80;;
64252;SDS011;50592;52.958;-7.470;2022-10-22T17:16:45;5.75;;;0.70;;
64252;SDS011;50592;52.958;-7.470;2022-10-22T17:31:46;7.15;;;1.58;;
64252;SDS011;50592;52.958;-7.470;2022-10-22T17:34:29;7.90;;;1.45;;
64252;SDS011;50592;52.958;-7.470;2022-10-22T17:37:07;6.55;;;1.30;;
64252;SDS011;50592;52.958;-7.470;2022-10-22T17:39:53;5.93;;;1.73;;
64252;SDS011;50592;52.958;-7.470;2022-10-22T17:42:33;3.45;;;1.52;;
64252;SDS011;50592;52.958;-7.470;2022-10-22T17:45:03;2.60;;;1.30;;
64252;SDS011;50592;52.958;-7.470;2022-10-22T17:47:46;3.95;;;1.42;;
64252;SDS011;50592;52.958;-7.470;2022-10-22T17:50:13;4.95;;;1.30;;
64252;SDS011;50592;52.958;-7.470;2022-10-22T17:52:43;6.95;;;1.75;;
64252;SDS011;50592;52.958;-7.470;2022-10-22T17:55:11;6.13;;;1.25;;
64252;SDS011;50592;52.958;-7.470;2022-10-22T17:57:41;4.13;;;0.93;;
64252;SDS011;50592;52.958;-7.470;2022-10-22T18:00:11;2.42;;;0.70;;
64252;SDS011;50592;52.958;-7.470;2022-10-22T18:02:38;4.65;;;0.60;;
64252;SDS011;50592;52.958;-7.470;2022-10-22T18:05:10;5.70;;;0.73;;
64252;SDS011;50592;52.958;-7.470;2022-10-22T18:07:37;5.00;;;0.90;;
64252;SDS011;50592;52.958;-7.470;2022-10-22T18:10:07;3.08;;;0.85;;
64252;SDS011;50592;52.958;-7.470;2022-10-22T18:12:43;2.17;;;0.75;;
64252;SDS011;50592;52.958;-7.470;2022-10-22T18:15:22;3.13;;;0.90;;
64252;SDS011;50592;52.958;-7.470;2022-10-22T18:17:51;4.15;;;0.80;;
64252;SDS011;50592;52.958;-7.470;2022-10-22T18:20:24;3.38;;;0.68;;
64252;SDS011;50592;52.958;-7.470;2022-10-22T18:22:53;1.40;;;0.60;;
64252;SDS011;50592;52.958;-7.470;2022-10-22T18:25:27;3.28;;;0.98;;
64252;SDS011;50592;52.958;-7.470;2022-10-22T18:27:57;1.85;;;0.60;;
64252;SDS011;50592;52.958;-7.470;2022-10-22T18:30:27;2.67;;;0.70;;
64252;SDS011;50592;52.958;-7.470;2022-10-22T18:32:54;1.98;;;0.70;;
64252;SDS011;50592;52.958;-7.470;2022-10-22T18:35:24;7.20;;;0.90;;
64252;SDS011;50592;52.958;-7.470;2022-10-22T18:37:51;2.75;;;0.70;;
64252;SDS011;50592;52.958;-7.470;2022-10-22T18:40:20;3.70;;;0.75;;
64252;SDS011;50592;52.958;-7.470;2022-10-22T18:42:50;2.08;;;0.90;;
64252;SDS011;50592;52.958;-7.470;2022-10-22T18:45:17;4.32;;;0.90;;
64252;SDS011;50592;52.958;-7.470;2022-10-22T18:47:47;5.18;;;3.20;;
64252;SDS011;50592;52.958;-7.470;2022-10-22T18:50:14;8.05;;;4.10;;
64252;SDS011;50592;52.958;-7.470;2022-10-22T18:52:44;5.53;;;1.77;;
64252;SDS011;50592;52.958;-7.470;2022-10-22T18:55:14;8.63;;;4.00;;
64252;SDS011;50592;52.958;-7.470;2022-10-22T18:57:43;6.22;;;3.65;;
64252;SDS011;50592;52.958;-7.470;2022-10-22T19:00:10;7.00;;;3.67;;
64252;SDS011;50592;52.958;-7.470;2022-10-22T19:02:41;6.47;;;4.03;;
64252;SDS011;50592;52.958;-7.470;2022-10-22T19:05:11;5.15;;;2.92;;
64252;SDS011;50592;52.958;-7.470;2022-10-22T19:07:41;4.75;;;2.33;;
64252;SDS011;50592;52.958;-7.470;2022-10-22T19:10:08;5.40;;;2.90;;
64252;SDS011;50592;52.958;-7.470;2022-10-22T19:12:38;13.55;;;5.65;;
64252;SDS011;50592;52.958;-7.470;2022-10-22T19:15:05;12.38;;;7.78;;
64252;SDS011;50592;52.958;-7.470;2022-10-22T19:17:36;4.53;;;2.60;;
64252;SDS011;50592;52.958;-7.470;2022-10-22T19:20:03;3.63;;;2.28;;
64252;SDS011;50592;52.958;-7.470;2022-10-22T19:22:32;5.00;;;1.92;;
64252;SDS011;50592;52.958;-7.470;2022-10-22T19:24:59;5.20;;;2.35;;
64252;SDS011;50592;52.958;-7.470;2022-10-22T19:27:29;7.35;;;2.28;;
64252;SDS011;50592;52.958;-7.470;2022-10-22T19:30:00;5.35;;;2.10;;
64252;SDS011;50592;52.958;-7.470;2022-10-22T19:32:30;6.22;;;1.83;;
64252;SDS011;50592;52.958;-7.470;2022-10-22T19:34:57;10.38;;;2.60;;
64252;SDS011;50592;52.958;-7.470;2022-10-22T19:37:26;5.07;;;2.17;;
64252;SDS011;50592;52.958;-7.470;2022-10-22T19:39:53;7.50;;;2.15;;
64252;SDS011;50592;52.958;-7.470;2022-10-22T19:42:23;7.68;;;2.30;;
64252;SDS011;50592;52.958;-7.470;2022-10-22T19:44:50;8.07;;;1.98;;
64252;SDS011;50592;52.958;-7.470;2022-10-22T19:47:19;11.55;;;3.20;;
64252;SDS011;50592;52.958;-7.470;2022-10-22T19:49:47;6.70;;;2.70;;
64252;SDS011;50592;52.958;-7.470;2022-10-22T19:52:17;7.70;;;2.90;;
64252;SDS011;50592;52.958;-7.470;2022-10-22T19:54:46;10.25;;;2.97;;
64252;SDS011;50592;52.958;-7.470;2022-10-22T19:57:17;6.57;;;2.75;;
64252;SDS011;50592;52.958;-7.470;2022-10-22T19:59:47;5.80;;;2.35;;
64252;SDS011;50592;52.958;-7.470;2022-10-22T20:02:17;9.07;;;2.30;;
64252;SDS011;50592;52.958;-7.470;2022-10-22T20:04:48;9.52;;;2.97;;
64252;SDS011;50592;52.958;-7.470;2022-10-22T20:07:18;8.98;;;2.28;;
64252;SDS011;50592;52.958;-7.470;2022-10-22T20:09:47;9.77;;;2.78;;
64252;SDS011;50592;52.958;-7.470;2022-10-22T20:12:20;11.35;;;2.65;;
64252;SDS011;50592;52.958;-7.470;2022-10-22T20:14:47;13.57;;;3.20;;
64252;SDS011;50592;52.958;-7.470;2022-10-22T20:17:17;18.30;;;3.13;;
64252;SDS011;50592;52.958;-7.470;2022-10-22T20:19:44;13.85;;;3.03;;
64252;SDS011;50592;52.958;-7.470;2022-10-22T20:22:20;18.90;;;3.40;;
64252;SDS011;50592;52.958;-7.470;2022-10-22T20:24:50;23.50;;;3.85;;
64252;SDS011;50592;52.958;-7.470;2022-10-22T20:27:20;18.77;;;3.47;;
64252;SDS011;50592;52.958;-7.470;2022-10-22T20:29:47;18.33;;;3.45;;
64252;SDS011;50592;52.958;-7.470;2022-10-22T20:32:16;22.08;;;3.28;;
64252;SDS011;50592;52.958;-7.470;2022-10-22T20:34:43;26.00;;;3.22;;
64252;SDS011;50592;52.958;-7.470;2022-10-22T20:37:16;21.50;;;3.75;;
64252;SDS011;50592;52.958;-7.470;2022-10-22T20:39:47;22.95;;;3.92;;
64252;SDS011;50592;52.958;-7.470;2022-10-22T20:42:18;21.92;;;4.10;;